sensor_id;sensor_type;location;lat;lon;timestamp;P1;durP1;ratioP1;P2;durP2;ratioP2
51824;SDS011;37879;52.986;6.282;2023-06-26T00:01:18;7.43;;;6.72;;
51824;SDS011;37879;52.986;6.282;2023-06-26T00:03:47;8.23;;;7.10;;
51824;SDS011;37879;52.986;6.282;2023-06-26T00:06:13;8.32;;;6.97;;
51824;SDS011;37879;52.986;6.282;2023-06-26T00:08:40;6.80;;;6.10;;
51824;SDS011;37879;52.986;6.282;2023-06-26T00:11:06;6.90;;;6.20;;
51824;SDS011;37879;52.986;6.282;2023-06-26T00:13:33;8.82;;;6.55;;
51824;SDS011;37879;52.986;6.282;2023-06-26T00:15:59;6.78;;;5.93;;
51824;SDS011;37879;52.986;6.282;2023-06-26T00:18:28;9.30;;;6.75;;
51824;SDS011;37879;52.986;6.282;2023-06-26T00:20:54;7.78;;;6.95;;
51824;SDS011;37879;52.986;6.282;2023-06-26T00:23:20;8.63;;;7.40;;
51824;SDS011;37879;52.986;6.282;2023-06-26T00:25:46;8.15;;;6.55;;
51824;SDS011;37879;52.986;6.282;2023-06-26T00:28:12;8.50;;;7.40;;
51824;SDS011;37879;52.986;6.282;2023-06-26T00:30:38;7.13;;;6.43;;
51824;SDS011;37879;52.986;6.282;2023-06-26T00:33:04;8.63;;;7.00;;
51824;SDS011;37879;52.986;6.282;2023-06-26T00:35:31;8.55;;;6.93;;
51824;SDS011;37879;52.986;6.282;2023-06-26T00:37:57;7.43;;;6.65;;
51824;SDS011;37879;52.986;6.282;2023-06-26T00:40:23;8.05;;;7.25;;
51824;SDS011;37879;52.986;6.282;2023-06-26T00:42:49;7.88;;;7.03;;
51824;SDS011;37879;52.986;6.282;2023-06-26T00:45:15;8.13;;;7.28;;
51824;SDS011;37879;52.986;6.282;2023-06-26T00:47:41;8.55;;;7.38;;
51824;SDS011;37879;52.986;6.282;2023-06-26T00:50:07;7.82;;;7.03;;
51824;SDS011;37879;52.986;6.282;2023-06-26T00:52:34;7.63;;;6.72;;
51824;SDS011;37879;52.986;6.282;2023-06-26T00:55:00;8.18;;;7.22;;
51824;SDS011;37879;52.986;6.282;2023-06-26T00:57:26;7.70;;;6.90;;
51824;SDS011;37879;52.986;6.282;2023-06-26T00:59:52;10.38;;;7.43;;
51824;SDS011;37879;52.986;6.282;2023-06-26T01:02:18;8.18;;;7.25;;
51824;SDS011;37879;52.986;6.282;2023-06-26T01:04:50;9.32;;;7.53;;
51824;SDS011;37879;52.986;6.282;2023-06-26T01:07:18;8.63;;;7.22;;
51824;SDS011;37879;52.986;6.282;2023-06-26T01:09:46;7.93;;;7.13;;
51824;SDS011;37879;52.986;6.282;2023-06-26T01:12:12;10.73;;;7.68;;
51824;SDS011;37879;52.986;6.282;2023-06-26T01:14:38;9.40;;;8.15;;
51824;SDS011;37879;52.986;6.282;2023-06-26T01:17:04;8.73;;;7.55;;
51824;SDS011;37879;52.986;6.282;2023-06-26T01:19:30;8.95;;;7.82;;
51824;SDS011;37879;52.986;6.282;2023-06-26T01:24:34;8.20;;;7.38;;
51824;SDS011;37879;52.986;6.282;2023-06-26T01:27:02;8.98;;;8.07;;
51824;SDS011;37879;52.986;6.282;2023-06-26T01:29:29;8.38;;;7.57;;
51824;SDS011;37879;52.986;6.282;2023-06-26T01:31:56;8.45;;;7.65;;
51824;SDS011;37879;52.986;6.282;2023-06-26T01:34:22;9.43;;;7.50;;
51824;SDS011;37879;52.986;6.282;2023-06-26T01:36:48;8.52;;;7.55;;
51824;SDS011;37879;52.986;6.282;2023-06-26T01:39:15;9.80;;;8.05;;
51824;SDS011;37879;52.986;6.282;2023-06-26T01:41:41;9.65;;;8.23;;
51824;SDS011;37879;52.986;6.282;2023-06-26T01:51:41;9.10;;;8.18;;
51824;SDS011;37879;52.986;6.282;2023-06-26T01:54:13;9.27;;;8.38;;
51824;SDS011;37879;52.986;6.282;2023-06-26T01:56:40;9.88;;;8.27;;
51824;SDS011;37879;52.986;6.282;2023-06-26T01:59:07;8.75;;;7.47;;
51824;SDS011;37879;52.986;6.282;2023-06-26T02:01:34;10.45;;;9.05;;
51824;SDS011;37879;52.986;6.282;2023-06-26T02:04:01;9.57;;;8.52;;
51824;SDS011;37879;52.986;6.282;2023-06-26T02:06:27;9.75;;;8.15;;
51824;SDS011;37879;52.986;6.282;2023-06-26T02:08:53;10.23;;;8.57;;
51824;SDS011;37879;52.986;6.282;2023-06-26T02:11:21;10.40;;;9.02;;
51824;SDS011;37879;52.986;6.282;2023-06-26T02:13:47;11.57;;;9.73;;
51824;SDS011;37879;52.986;6.282;2023-06-26T02:16:13;9.75;;;8.80;;
51824;SDS011;37879;52.986;6.282;2023-06-26T02:18:39;10.05;;;8.77;;
51824;SDS011;37879;52.986;6.282;2023-06-26T02:21:06;10.68;;;9.63;;
51824;SDS011;37879;52.986;6.282;2023-06-26T02:23:32;10.77;;;9.38;;
51824;SDS011;37879;52.986;6.282;2023-06-26T02:25:59;11.68;;;9.68;;
51824;SDS011;37879;52.986;6.282;2023-06-26T02:28:25;14.25;;;10.65;;
51824;SDS011;37879;52.986;6.282;2023-06-26T02:30:51;11.00;;;9.90;;
51824;SDS011;37879;52.986;6.282;2023-06-26T02:33:17;11.35;;;10.15;;
51824;SDS011;37879;52.986;6.282;2023-06-26T02:35:43;11.15;;;9.80;;
51824;SDS011;37879;52.986;6.282;2023-06-26T02:38:09;10.38;;;9.27;;
51824;SDS011;37879;52.986;6.282;2023-06-26T02:40:35;14.02;;;9.57;;
51824;SDS011;37879;52.986;6.282;2023-06-26T02:43:01;13.05;;;10.02;;
51824;SDS011;37879;52.986;6.282;2023-06-26T02:45:27;12.77;;;10.57;;
51824;SDS011;37879;52.986;6.282;2023-06-26T02:47:53;12.43;;;10.77;;
51824;SDS011;37879;52.986;6.282;2023-06-26T02:50:19;13.35;;;9.93;;
51824;SDS011;37879;52.986;6.282;2023-06-26T02:52:45;11.60;;;10.40;;
51824;SDS011;37879;52.986;6.282;2023-06-26T02:55:15;11.00;;;9.68;;
51824;SDS011;37879;52.986;6.282;2023-06-26T02:57:41;11.05;;;9.70;;
51824;SDS011;37879;52.986;6.282;2023-06-26T03:00:07;12.05;;;10.13;;
51824;SDS011;37879;52.986;6.282;2023-06-26T03:02:34;10.73;;;9.50;;
51824;SDS011;37879;52.986;6.282;2023-06-26T03:05:00;10.07;;;8.93;;
51824;SDS011;37879;52.986;6.282;2023-06-26T03:07:26;11.48;;;10.05;;
51824;SDS011;37879;52.986;6.282;2023-06-26T03:09:52;11.43;;;10.00;;
51824;SDS011;37879;52.986;6.282;2023-06-26T03:12:19;10.82;;;9.73;;
51824;SDS011;37879;52.986;6.282;2023-06-26T03:14:45;10.40;;;9.10;;
51824;SDS011;37879;52.986;6.282;2023-06-26T03:17:11;10.02;;;8.95;;
51824;SDS011;37879;52.986;6.282;2023-06-26T03:19:37;10.55;;;8.88;;
51824;SDS011;37879;52.986;6.282;2023-06-26T03:22:03;11.77;;;9.30;;
51824;SDS011;37879;52.986;6.282;2023-06-26T03:24:29;11.20;;;9.60;;
51824;SDS011;37879;52.986;6.282;2023-06-26T03:26:55;13.38;;;9.07;;
51824;SDS011;37879;52.986;6.282;2023-06-26T03:29:21;11.88;;;9.60;;
51824;SDS011;37879;52.986;6.282;2023-06-26T03:31:47;10.80;;;8.13;;
51824;SDS011;37879;52.986;6.282;2023-06-26T03:34:13;10.95;;;8.38;;
51824;SDS011;37879;52.986;6.282;2023-06-26T03:36:39;10.52;;;8.57;;
51824;SDS011;37879;52.986;6.282;2023-06-26T03:39:06;10.27;;;8.77;;
51824;SDS011;37879;52.986;6.282;2023-06-26T03:41:32;11.45;;;8.75;;
51824;SDS011;37879;52.986;6.282;2023-06-26T03:43:58;10.23;;;8.90;;
51824;SDS011;37879;52.986;6.282;2023-06-26T03:46:25;9.23;;;7.93;;
51824;SDS011;37879;52.986;6.282;2023-06-26T03:48:51;10.32;;;8.32;;
51824;SDS011;37879;52.986;6.282;2023-06-26T03:51:17;10.48;;;7.55;;
51824;SDS011;37879;52.986;6.282;2023-06-26T03:53:44;8.38;;;7.55;;
51824;SDS011;37879;52.986;6.282;2023-06-26T03:56:10;9.75;;;7.32;;
51824;SDS011;37879;52.986;6.282;2023-06-26T03:58:36;8.77;;;6.80;;
51824;SDS011;37879;52.986;6.282;2023-06-26T04:01:02;10.05;;;7.35;;
51824;SDS011;37879;52.986;6.282;2023-06-26T04:03:30;9.23;;;7.97;;
51824;SDS011;37879;52.986;6.282;2023-06-26T04:05:56;9.73;;;6.88;;
51824;SDS011;37879;52.986;6.282;2023-06-26T04:08:23;7.80;;;6.82;;
51824;SDS011;37879;52.986;6.282;2023-06-26T04:10:53;9.55;;;6.78;;
51824;SDS011;37879;52.986;6.282;2023-06-26T04:13:20;10.85;;;7.85;;
51824;SDS011;37879;52.986;6.282;2023-06-26T04:15:46;13.05;;;6.60;;
51824;SDS011;37879;52.986;6.282;2023-06-26T04:18:12;9.85;;;7.07;;
51824;SDS011;37879;52.986;6.282;2023-06-26T04:20:39;8.95;;;6.80;;
51824;SDS011;37879;52.986;6.282;2023-06-26T04:23:05;11.82;;;6.63;;
51824;SDS011;37879;52.986;6.282;2023-06-26T04:25:31;10.52;;;6.93;;
51824;SDS011;37879;52.986;6.282;2023-06-26T04:27:57;11.18;;;7.45;;
51824;SDS011;37879;52.986;6.282;2023-06-26T04:30:23;10.48;;;7.43;;
51824;SDS011;37879;52.986;6.282;2023-06-26T04:32:49;11.38;;;6.45;;
51824;SDS011;37879;52.986;6.282;2023-06-26T04:35:15;10.13;;;7.25;;
51824;SDS011;37879;52.986;6.282;2023-06-26T04:37:41;13.18;;;8.48;;
51824;SDS011;37879;52.986;6.282;2023-06-26T04:40:07;11.27;;;7.43;;
51824;SDS011;37879;52.986;6.282;2023-06-26T04:42:34;10.25;;;6.90;;
51824;SDS011;37879;52.986;6.282;2023-06-26T04:45:00;14.27;;;7.40;;
51824;SDS011;37879;52.986;6.282;2023-06-26T04:47:27;10.98;;;7.18;;
51824;SDS011;37879;52.986;6.282;2023-06-26T04:49:53;15.70;;;8.65;;
51824;SDS011;37879;52.986;6.282;2023-06-26T04:52:20;12.30;;;7.50;;
51824;SDS011;37879;52.986;6.282;2023-06-26T04:54:46;13.93;;;7.35;;
51824;SDS011;37879;52.986;6.282;2023-06-26T04:57:12;12.75;;;7.40;;
51824;SDS011;37879;52.986;6.282;2023-06-26T04:59:39;16.27;;;8.60;;
51824;SDS011;37879;52.986;6.282;2023-06-26T05:02:05;11.05;;;7.55;;
51824;SDS011;37879;52.986;6.282;2023-06-26T05:04:32;10.75;;;7.57;;
51824;SDS011;37879;52.986;6.282;2023-06-26T05:06:58;13.68;;;8.00;;
51824;SDS011;37879;52.986;6.282;2023-06-26T05:09:24;15.13;;;7.55;;
51824;SDS011;37879;52.986;6.282;2023-06-26T05:11:50;15.35;;;8.75;;
51824;SDS011;37879;52.986;6.282;2023-06-26T05:14:16;14.32;;;7.78;;
51824;SDS011;37879;52.986;6.282;2023-06-26T05:16:42;16.55;;;8.65;;
51824;SDS011;37879;52.986;6.282;2023-06-26T05:19:08;8.25;;;6.43;;
51824;SDS011;37879;52.986;6.282;2023-06-26T05:21:34;13.77;;;5.93;;
51824;SDS011;37879;52.986;6.282;2023-06-26T05:24:00;9.80;;;5.70;;
51824;SDS011;37879;52.986;6.282;2023-06-26T05:26:28;9.40;;;4.75;;
51824;SDS011;37879;52.986;6.282;2023-06-26T05:28:54;7.38;;;4.70;;
51824;SDS011;37879;52.986;6.282;2023-06-26T05:31:21;7.93;;;4.93;;
51824;SDS011;37879;52.986;6.282;2023-06-26T05:33:47;7.25;;;5.07;;
51824;SDS011;37879;52.986;6.282;2023-06-26T05:36:15;18.17;;;5.15;;
51824;SDS011;37879;52.986;6.282;2023-06-26T05:38:42;7.85;;;4.43;;
51824;SDS011;37879;52.986;6.282;2023-06-26T05:41:08;9.63;;;4.32;;
51824;SDS011;37879;52.986;6.282;2023-06-26T05:43:34;11.68;;;4.90;;
51824;SDS011;37879;52.986;6.282;2023-06-26T05:46:00;9.02;;;3.70;;
51824;SDS011;37879;52.986;6.282;2023-06-26T05:48:26;9.88;;;3.78;;
51824;SDS011;37879;52.986;6.282;2023-06-26T05:50:52;6.78;;;3.25;;
51824;SDS011;37879;52.986;6.282;2023-06-26T05:53:19;10.68;;;3.88;;
51824;SDS011;37879;52.986;6.282;2023-06-26T05:55:45;10.00;;;4.47;;
51824;SDS011;37879;52.986;6.282;2023-06-26T05:58:11;7.50;;;4.00;;
51824;SDS011;37879;52.986;6.282;2023-06-26T06:00:38;7.10;;;3.53;;
51824;SDS011;37879;52.986;6.282;2023-06-26T06:03:05;10.25;;;4.25;;
51824;SDS011;37879;52.986;6.282;2023-06-26T06:05:31;9.80;;;3.30;;
51824;SDS011;37879;52.986;6.282;2023-06-26T06:07:57;7.22;;;3.50;;
51824;SDS011;37879;52.986;6.282;2023-06-26T06:10:23;5.43;;;2.65;;
51824;SDS011;37879;52.986;6.282;2023-06-26T06:12:49;6.22;;;2.92;;
51824;SDS011;37879;52.986;6.282;2023-06-26T06:15:15;7.40;;;3.22;;
51824;SDS011;37879;52.986;6.282;2023-06-26T06:17:41;8.48;;;3.42;;
51824;SDS011;37879;52.986;6.282;2023-06-26T06:20:07;8.73;;;2.88;;
51824;SDS011;37879;52.986;6.282;2023-06-26T06:22:33;9.07;;;2.90;;
51824;SDS011;37879;52.986;6.282;2023-06-26T06:24:59;6.05;;;2.78;;
51824;SDS011;37879;52.986;6.282;2023-06-26T06:27:25;8.48;;;2.65;;
51824;SDS011;37879;52.986;6.282;2023-06-26T06:29:52;6.47;;;3.13;;
51824;SDS011;37879;52.986;6.282;2023-06-26T06:32:18;6.97;;;2.83;;
51824;SDS011;37879;52.986;6.282;2023-06-26T06:34:44;7.28;;;2.78;;
51824;SDS011;37879;52.986;6.282;2023-06-26T06:37:10;8.82;;;3.13;;
51824;SDS011;37879;52.986;6.282;2023-06-26T06:39:36;5.80;;;2.22;;
51824;SDS011;37879;52.986;6.282;2023-06-26T06:42:02;5.97;;;2.25;;
51824;SDS011;37879;52.986;6.282;2023-06-26T06:44:28;11.63;;;2.17;;
51824;SDS011;37879;52.986;6.282;2023-06-26T06:46:55;4.93;;;2.10;;
51824;SDS011;37879;52.986;6.282;2023-06-26T06:49:21;5.00;;;2.30;;
51824;SDS011;37879;52.986;6.282;2023-06-26T06:51:47;4.93;;;1.90;;
51824;SDS011;37879;52.986;6.282;2023-06-26T06:54:15;3.45;;;1.52;;
51824;SDS011;37879;52.986;6.282;2023-06-26T06:56:41;4.90;;;1.83;;
51824;SDS011;37879;52.986;6.282;2023-06-26T06:59:07;5.07;;;2.35;;
51824;SDS011;37879;52.986;6.282;2023-06-26T07:01:33;3.97;;;1.73;;
51824;SDS011;37879;52.986;6.282;2023-06-26T07:03:59;4.32;;;1.40;;
51824;SDS011;37879;52.986;6.282;2023-06-26T07:06:25;4.95;;;1.80;;
51824;SDS011;37879;52.986;6.282;2023-06-26T07:08:52;9.60;;;2.00;;
51824;SDS011;37879;52.986;6.282;2023-06-26T07:11:18;3.95;;;1.85;;
51824;SDS011;37879;52.986;6.282;2023-06-26T07:13:44;4.45;;;1.60;;
51824;SDS011;37879;52.986;6.282;2023-06-26T07:16:10;5.53;;;1.92;;
51824;SDS011;37879;52.986;6.282;2023-06-26T07:18:39;7.07;;;1.90;;
51824;SDS011;37879;52.986;6.282;2023-06-26T07:21:05;3.95;;;1.65;;
51824;SDS011;37879;52.986;6.282;2023-06-26T07:23:31;4.43;;;1.60;;
51824;SDS011;37879;52.986;6.282;2023-06-26T07:25:57;6.53;;;2.00;;
51824;SDS011;37879;52.986;6.282;2023-06-26T07:28:23;6.13;;;2.17;;
51824;SDS011;37879;52.986;6.282;2023-06-26T07:30:49;10.50;;;2.35;;
51824;SDS011;37879;52.986;6.282;2023-06-26T07:33:15;4.97;;;2.17;;
51824;SDS011;37879;52.986;6.282;2023-06-26T07:35:41;6.50;;;1.60;;
51824;SDS011;37879;52.986;6.282;2023-06-26T07:38:10;6.15;;;1.48;;
51824;SDS011;37879;52.986;6.282;2023-06-26T07:40:36;4.80;;;1.65;;
51824;SDS011;37879;52.986;6.282;2023-06-26T07:43:02;4.38;;;1.38;;
51824;SDS011;37879;52.986;6.282;2023-06-26T07:45:28;3.83;;;1.40;;
51824;SDS011;37879;52.986;6.282;2023-06-26T07:47:54;4.25;;;1.10;;
51824;SDS011;37879;52.986;6.282;2023-06-26T07:50:20;3.28;;;1.35;;
51824;SDS011;37879;52.986;6.282;2023-06-26T07:52:48;6.70;;;2.13;;
51824;SDS011;37879;52.986;6.282;2023-06-26T07:55:14;3.85;;;1.63;;
51824;SDS011;37879;52.986;6.282;2023-06-26T07:57:40;4.10;;;1.42;;
51824;SDS011;37879;52.986;6.282;2023-06-26T08:00:06;3.67;;;1.80;;
51824;SDS011;37879;52.986;6.282;2023-06-26T08:02:32;4.75;;;1.60;;
51824;SDS011;37879;52.986;6.282;2023-06-26T08:04:58;11.85;;;2.10;;
51824;SDS011;37879;52.986;6.282;2023-06-26T08:07:24;3.30;;;1.70;;
51824;SDS011;37879;52.986;6.282;2023-06-26T08:09:50;4.53;;;1.70;;
51824;SDS011;37879;52.986;6.282;2023-06-26T08:12:16;5.78;;;2.15;;
51824;SDS011;37879;52.986;6.282;2023-06-26T08:14:42;2.95;;;1.80;;
51824;SDS011;37879;52.986;6.282;2023-06-26T08:17:08;3.03;;;2.03;;
51824;SDS011;37879;52.986;6.282;2023-06-26T08:19:35;3.90;;;1.95;;
51824;SDS011;37879;52.986;6.282;2023-06-26T08:22:01;2.88;;;1.60;;
51824;SDS011;37879;52.986;6.282;2023-06-26T08:24:27;3.70;;;1.90;;
51824;SDS011;37879;52.986;6.282;2023-06-26T08:26:53;4.57;;;2.25;;
51824;SDS011;37879;52.986;6.282;2023-06-26T08:29:19;9.73;;;2.60;;
51824;SDS011;37879;52.986;6.282;2023-06-26T08:31:45;6.53;;;2.03;;
51824;SDS011;37879;52.986;6.282;2023-06-26T08:34:11;4.60;;;1.75;;
51824;SDS011;37879;52.986;6.282;2023-06-26T08:36:37;5.60;;;1.92;;
51824;SDS011;37879;52.986;6.282;2023-06-26T08:39:03;4.13;;;1.88;;
51824;SDS011;37879;52.986;6.282;2023-06-26T08:41:33;4.25;;;2.47;;
51824;SDS011;37879;52.986;6.282;2023-06-26T08:44:00;4.88;;;2.17;;
51824;SDS011;37879;52.986;6.282;2023-06-26T08:46:26;5.32;;;2.50;;
51824;SDS011;37879;52.986;6.282;2023-06-26T08:48:58;5.80;;;2.42;;
51824;SDS011;37879;52.986;6.282;2023-06-26T08:51:27;4.38;;;2.72;;
51824;SDS011;37879;52.986;6.282;2023-06-26T08:53:57;4.13;;;2.10;;
51824;SDS011;37879;52.986;6.282;2023-06-26T08:56:24;4.07;;;2.05;;
51824;SDS011;37879;52.986;6.282;2023-06-26T08:58:50;5.18;;;2.35;;
51824;SDS011;37879;52.986;6.282;2023-06-26T09:01:16;3.78;;;1.52;;
51824;SDS011;37879;52.986;6.282;2023-06-26T09:03:44;5.50;;;2.00;;
51824;SDS011;37879;52.986;6.282;2023-06-26T09:06:10;4.18;;;2.08;;
51824;SDS011;37879;52.986;6.282;2023-06-26T09:08:36;4.75;;;1.65;;
51824;SDS011;37879;52.986;6.282;2023-06-26T09:11:02;3.72;;;2.03;;
51824;SDS011;37879;52.986;6.282;2023-06-26T09:13:29;4.18;;;2.65;;
51824;SDS011;37879;52.986;6.282;2023-06-26T09:15:55;5.45;;;3.00;;
51824;SDS011;37879;52.986;6.282;2023-06-26T09:18:21;3.53;;;2.13;;
51824;SDS011;37879;52.986;6.282;2023-06-26T09:20:48;5.40;;;2.30;;
51824;SDS011;37879;52.986;6.282;2023-06-26T09:23:14;5.32;;;2.70;;
51824;SDS011;37879;52.986;6.282;2023-06-26T09:25:40;3.80;;;2.28;;
51824;SDS011;37879;52.986;6.282;2023-06-26T09:28:06;6.88;;;3.35;;
51824;SDS011;37879;52.986;6.282;2023-06-26T09:30:32;6.35;;;3.33;;
51824;SDS011;37879;52.986;6.282;2023-06-26T09:33:12;4.80;;;2.65;;
51824;SDS011;37879;52.986;6.282;2023-06-26T09:35:39;6.88;;;2.92;;
51824;SDS011;37879;52.986;6.282;2023-06-26T09:38:07;5.82;;;2.45;;
51824;SDS011;37879;52.986;6.282;2023-06-26T09:40:33;4.88;;;2.28;;
51824;SDS011;37879;52.986;6.282;2023-06-26T09:43:10;5.93;;;2.53;;
51824;SDS011;37879;52.986;6.282;2023-06-26T09:48:04;6.00;;;2.75;;
51824;SDS011;37879;52.986;6.282;2023-06-26T09:50:34;3.75;;;2.35;;
51824;SDS011;37879;52.986;6.282;2023-06-26T09:53:08;8.90;;;3.40;;
51824;SDS011;37879;52.986;6.282;2023-06-26T09:55:38;6.88;;;2.55;;
51824;SDS011;37879;52.986;6.282;2023-06-26T09:58:05;3.33;;;2.38;;
51824;SDS011;37879;52.986;6.282;2023-06-26T10:00:32;5.43;;;2.10;;
51824;SDS011;37879;52.986;6.282;2023-06-26T10:03:01;6.72;;;2.50;;
51824;SDS011;37879;52.986;6.282;2023-06-26T10:05:28;4.30;;;2.22;;
51824;SDS011;37879;52.986;6.282;2023-06-26T10:07:54;4.82;;;2.53;;
51824;SDS011;37879;52.986;6.282;2023-06-26T10:10:21;4.00;;;2.13;;
51824;SDS011;37879;52.986;6.282;2023-06-26T10:12:48;4.53;;;3.08;;
51824;SDS011;37879;52.986;6.282;2023-06-26T10:15:15;6.97;;;3.22;;
51824;SDS011;37879;52.986;6.282;2023-06-26T10:17:42;5.13;;;2.38;;
51824;SDS011;37879;52.986;6.282;2023-06-26T10:20:09;3.88;;;2.03;;
51824;SDS011;37879;52.986;6.282;2023-06-26T10:22:37;4.60;;;2.22;;
51824;SDS011;37879;52.986;6.282;2023-06-26T10:25:06;3.25;;;2.17;;
51824;SDS011;37879;52.986;6.282;2023-06-26T10:27:34;7.93;;;3.17;;
51824;SDS011;37879;52.986;6.282;2023-06-26T10:30:02;5.93;;;2.70;;
51824;SDS011;37879;52.986;6.282;2023-06-26T10:32:30;4.07;;;1.95;;
51824;SDS011;37879;52.986;6.282;2023-06-26T10:34:56;3.67;;;2.33;;
51824;SDS011;37879;52.986;6.282;2023-06-26T10:40:11;4.13;;;2.28;;
51824;SDS011;37879;52.986;6.282;2023-06-26T10:42:38;5.00;;;1.88;;
51824;SDS011;37879;52.986;6.282;2023-06-26T10:45:13;5.10;;;2.30;;
51824;SDS011;37879;52.986;6.282;2023-06-26T10:47:40;7.28;;;2.60;;
51824;SDS011;37879;52.986;6.282;2023-06-26T10:50:39;4.75;;;2.30;;
51824;SDS011;37879;52.986;6.282;2023-06-26T10:55:59;3.50;;;2.13;;
51824;SDS011;37879;52.986;6.282;2023-06-26T10:58:32;4.57;;;2.28;;
51824;SDS011;37879;52.986;6.282;2023-06-26T11:03:41;4.90;;;2.67;;
51824;SDS011;37879;52.986;6.282;2023-06-26T11:06:14;5.15;;;2.75;;
51824;SDS011;37879;52.986;6.282;2023-06-26T11:08:44;5.28;;;1.95;;
51824;SDS011;37879;52.986;6.282;2023-06-26T11:11:11;5.68;;;2.40;;
51824;SDS011;37879;52.986;6.282;2023-06-26T11:13:37;5.35;;;2.60;;
51824;SDS011;37879;52.986;6.282;2023-06-26T11:16:04;5.10;;;1.80;;
51824;SDS011;37879;52.986;6.282;2023-06-26T11:18:31;4.97;;;2.20;;
51824;SDS011;37879;52.986;6.282;2023-06-26T11:21:15;3.47;;;1.80;;
51824;SDS011;37879;52.986;6.282;2023-06-26T11:23:41;4.82;;;2.15;;
51824;SDS011;37879;52.986;6.282;2023-06-26T11:26:15;4.28;;;1.63;;
51824;SDS011;37879;52.986;6.282;2023-06-26T11:28:45;3.45;;;1.42;;
51824;SDS011;37879;52.986;6.282;2023-06-26T11:31:23;7.18;;;1.52;;
51824;SDS011;37879;52.986;6.282;2023-06-26T11:33:49;2.30;;;1.10;;
51824;SDS011;37879;52.986;6.282;2023-06-26T11:36:16;2.83;;;1.15;;
51824;SDS011;37879;52.986;6.282;2023-06-26T11:38:42;6.15;;;1.42;;
51824;SDS011;37879;52.986;6.282;2023-06-26T11:41:08;3.67;;;1.38;;
51824;SDS011;37879;52.986;6.282;2023-06-26T11:43:34;4.95;;;1.30;;
51824;SDS011;37879;52.986;6.282;2023-06-26T11:46:00;4.30;;;1.52;;
51824;SDS011;37879;52.986;6.282;2023-06-26T11:48:26;2.38;;;1.30;;
51824;SDS011;37879;52.986;6.282;2023-06-26T11:50:54;3.83;;;1.38;;
51824;SDS011;37879;52.986;6.282;2023-06-26T11:53:20;7.72;;;1.17;;
51824;SDS011;37879;52.986;6.282;2023-06-26T11:55:46;3.85;;;1.23;;
51824;SDS011;37879;52.986;6.282;2023-06-26T11:58:12;6.55;;;1.65;;
51824;SDS011;37879;52.986;6.282;2023-06-26T12:00:42;4.82;;;1.35;;
51824;SDS011;37879;52.986;6.282;2023-06-26T12:03:11;4.43;;;1.60;;
51824;SDS011;37879;52.986;6.282;2023-06-26T12:05:37;5.18;;;1.30;;
51824;SDS011;37879;52.986;6.282;2023-06-26T12:08:04;4.15;;;1.85;;
51824;SDS011;37879;52.986;6.282;2023-06-26T12:10:32;4.80;;;1.20;;
51824;SDS011;37879;52.986;6.282;2023-06-26T12:12:58;3.70;;;1.30;;
51824;SDS011;37879;52.986;6.282;2023-06-26T12:15:26;4.20;;;1.35;;
51824;SDS011;37879;52.986;6.282;2023-06-26T12:17:53;3.90;;;1.20;;
51824;SDS011;37879;52.986;6.282;2023-06-26T12:20:20;5.38;;;1.85;;
51824;SDS011;37879;52.986;6.282;2023-06-26T12:22:47;4.65;;;1.55;;
51824;SDS011;37879;52.986;6.282;2023-06-26T12:25:13;4.88;;;1.63;;
51824;SDS011;37879;52.986;6.282;2023-06-26T12:27:39;3.90;;;1.30;;
51824;SDS011;37879;52.986;6.282;2023-06-26T12:30:06;2.92;;;1.20;;
51824;SDS011;37879;52.986;6.282;2023-06-26T12:32:32;2.83;;;1.25;;
51824;SDS011;37879;52.986;6.282;2023-06-26T12:35:00;5.05;;;1.33;;
51824;SDS011;37879;52.986;6.282;2023-06-26T12:37:26;3.75;;;1.73;;
51824;SDS011;37879;52.986;6.282;2023-06-26T12:39:53;3.45;;;1.35;;
51824;SDS011;37879;52.986;6.282;2023-06-26T12:44:45;3.60;;;1.50;;
51824;SDS011;37879;52.986;6.282;2023-06-26T12:47:12;3.25;;;1.45;;
51824;SDS011;37879;52.986;6.282;2023-06-26T12:49:40;5.75;;;1.52;;
51824;SDS011;37879;52.986;6.282;2023-06-26T12:52:10;3.28;;;1.42;;
51824;SDS011;37879;52.986;6.282;2023-06-26T12:54:38;5.15;;;1.80;;
51824;SDS011;37879;52.986;6.282;2023-06-26T12:57:05;5.68;;;1.40;;
51824;SDS011;37879;52.986;6.282;2023-06-26T12:59:31;7.22;;;1.55;;
51824;SDS011;37879;52.986;6.282;2023-06-26T13:01:58;7.60;;;1.80;;
51824;SDS011;37879;52.986;6.282;2023-06-26T13:04:24;5.75;;;1.50;;
51824;SDS011;37879;52.986;6.282;2023-06-26T13:06:51;4.68;;;1.35;;
51824;SDS011;37879;52.986;6.282;2023-06-26T13:09:19;4.20;;;1.65;;
51824;SDS011;37879;52.986;6.282;2023-06-26T13:11:45;6.70;;;1.95;;
51824;SDS011;37879;52.986;6.282;2023-06-26T13:14:11;5.20;;;1.50;;
51824;SDS011;37879;52.986;6.282;2023-06-26T13:16:38;7.50;;;1.60;;
51824;SDS011;37879;52.986;6.282;2023-06-26T13:19:04;6.82;;;1.98;;
51824;SDS011;37879;52.986;6.282;2023-06-26T13:21:30;5.22;;;1.90;;
51824;SDS011;37879;52.986;6.282;2023-06-26T13:23:56;4.47;;;1.70;;
51824;SDS011;37879;52.986;6.282;2023-06-26T13:26:24;3.88;;;1.65;;
51824;SDS011;37879;52.986;6.282;2023-06-26T13:28:51;6.88;;;1.65;;
51824;SDS011;37879;52.986;6.282;2023-06-26T13:31:17;2.97;;;1.42;;
51824;SDS011;37879;52.986;6.282;2023-06-26T13:33:44;4.53;;;0.95;;
51824;SDS011;37879;52.986;6.282;2023-06-26T13:36:11;3.10;;;1.17;;
51824;SDS011;37879;52.986;6.282;2023-06-26T13:38:37;4.60;;;1.10;;
51824;SDS011;37879;52.986;6.282;2023-06-26T13:41:03;5.00;;;1.35;;
51824;SDS011;37879;52.986;6.282;2023-06-26T13:43:29;3.88;;;1.30;;
51824;SDS011;37879;52.986;6.282;2023-06-26T13:45:56;3.30;;;1.10;;
51824;SDS011;37879;52.986;6.282;2023-06-26T13:48:22;3.90;;;1.40;;
51824;SDS011;37879;52.986;6.282;2023-06-26T13:50:51;3.30;;;1.23;;
51824;SDS011;37879;52.986;6.282;2023-06-26T13:53:17;5.05;;;1.77;;
51824;SDS011;37879;52.986;6.282;2023-06-26T13:55:44;4.25;;;1.20;;
51824;SDS011;37879;52.986;6.282;2023-06-26T13:58:10;3.40;;;1.30;;
51824;SDS011;37879;52.986;6.282;2023-06-26T14:00:38;2.83;;;1.15;;
51824;SDS011;37879;52.986;6.282;2023-06-26T14:03:05;3.03;;;1.25;;
51824;SDS011;37879;52.986;6.282;2023-06-26T14:05:35;4.80;;;1.38;;
51824;SDS011;37879;52.986;6.282;2023-06-26T14:08:02;5.63;;;1.88;;
51824;SDS011;37879;52.986;6.282;2023-06-26T14:10:29;7.55;;;1.55;;
51824;SDS011;37879;52.986;6.282;2023-06-26T14:12:55;4.53;;;1.67;;
51824;SDS011;37879;52.986;6.282;2023-06-26T14:15:22;6.47;;;1.58;;
51824;SDS011;37879;52.986;6.282;2023-06-26T14:17:48;6.95;;;2.03;;
51824;SDS011;37879;52.986;6.282;2023-06-26T14:20:15;4.47;;;1.70;;
51824;SDS011;37879;52.986;6.282;2023-06-26T14:22:42;7.38;;;2.08;;
51824;SDS011;37879;52.986;6.282;2023-06-26T14:25:09;6.13;;;1.70;;
51824;SDS011;37879;52.986;6.282;2023-06-26T14:27:35;4.97;;;1.90;;
51824;SDS011;37879;52.986;6.282;2023-06-26T14:30:02;7.78;;;2.15;;
51824;SDS011;37879;52.986;6.282;2023-06-26T14:32:28;5.35;;;1.50;;
51824;SDS011;37879;52.986;6.282;2023-06-26T14:34:55;7.55;;;1.50;;
51824;SDS011;37879;52.986;6.282;2023-06-26T14:37:21;4.95;;;1.60;;
51824;SDS011;37879;52.986;6.282;2023-06-26T14:39:47;6.07;;;1.58;;
51824;SDS011;37879;52.986;6.282;2023-06-26T14:42:13;5.70;;;1.90;;
51824;SDS011;37879;52.986;6.282;2023-06-26T14:44:39;6.57;;;2.25;;
51824;SDS011;37879;52.986;6.282;2023-06-26T14:47:05;10.07;;;1.60;;
51824;SDS011;37879;52.986;6.282;2023-06-26T14:49:31;5.15;;;1.40;;
51824;SDS011;37879;52.986;6.282;2023-06-26T14:51:57;5.88;;;1.88;;
51824;SDS011;37879;52.986;6.282;2023-06-26T14:54:23;5.05;;;2.05;;
51824;SDS011;37879;52.986;6.282;2023-06-26T14:56:49;3.60;;;1.30;;
51824;SDS011;37879;52.986;6.282;2023-06-26T14:59:15;5.43;;;1.98;;
51824;SDS011;37879;52.986;6.282;2023-06-26T15:01:42;5.85;;;1.40;;
51824;SDS011;37879;52.986;6.282;2023-06-26T15:04:08;3.42;;;1.23;;
51824;SDS011;37879;52.986;6.282;2023-06-26T15:06:35;4.88;;;1.35;;